sensor_id;sensor_type;location;lat;lon;timestamp;P1;durP1;ratioP1;P2;durP2;ratioP2
68072;SDS011;54862;51.502;7.446;2022-10-23T00:01:18;7.80;;;3.10;;
68072;SDS011;54862;51.502;7.446;2022-10-23T00:03:45;10.68;;;3.33;;
68072;SDS011;54862;51.502;7.446;2022-10-23T00:06:11;9.73;;;3.63;;
68072;SDS011;54862;51.502;7.446;2022-10-23T00:08:37;9.55;;;3.20;;
68072;SDS011;54862;51.502;7.446;2022-10-23T00:11:07;8.68;;;3.15;;
68072;SDS011;54862;51.502;7.446;2022-10-23T00:13:33;12.43;;;3.80;;
68072;SDS011;54862;51.502;7.446;2022-10-23T00:15:59;10.43;;;3.25;;
68072;SDS011;54862;51.502;7.446;2022-10-23T00:18:25;8.85;;;3.60;;
68072;SDS011;54862;51.502;7.446;2022-10-23T00:20:51;9.57;;;3.80;;
68072;SDS011;54862;51.502;7.446;2022-10-23T00:23:17;13.10;;;4.03;;
68072;SDS011;54862;51.502;7.446;2022-10-23T00:25:43;9.30;;;3.83;;
68072;SDS011;54862;51.502;7.446;2022-10-23T00:28:09;12.88;;;3.70;;
68072;SDS011;54862;51.502;7.446;2022-10-23T00:30:35;10.55;;;3.88;;
68072;SDS011;54862;51.502;7.446;2022-10-23T00:33:01;9.60;;;3.90;;
68072;SDS011;54862;51.502;7.446;2022-10-23T00:35:27;11.07;;;4.03;;
68072;SDS011;54862;51.502;7.446;2022-10-23T00:37:53;9.25;;;3.22;;
68072;SDS011;54862;51.502;7.446;2022-10-23T00:40:19;11.95;;;4.10;;
68072;SDS011;54862;51.502;7.446;2022-10-23T00:42:45;13.70;;;3.67;;
68072;SDS011;54862;51.502;7.446;2022-10-23T00:45:22;11.73;;;3.60;;
68072;SDS011;54862;51.502;7.446;2022-10-23T00:47:49;11.85;;;4.53;;
68072;SDS011;54862;51.502;7.446;2022-10-23T00:50:15;10.45;;;3.90;;
68072;SDS011;54862;51.502;7.446;2022-10-23T00:52:44;10.35;;;3.90;;
68072;SDS011;54862;51.502;7.446;2022-10-23T00:55:11;12.38;;;4.40;;
68072;SDS011;54862;51.502;7.446;2022-10-23T00:57:39;13.20;;;3.72;;
68072;SDS011;54862;51.502;7.446;2022-10-23T01:00:06;9.27;;;3.70;;
68072;SDS011;54862;51.502;7.446;2022-10-23T01:02:32;10.45;;;3.75;;
68072;SDS011;54862;51.502;7.446;2022-10-23T01:04:58;12.55;;;3.90;;
68072;SDS011;54862;51.502;7.446;2022-10-23T01:10:31;10.07;;;4.70;;
68072;SDS011;54862;51.502;7.446;2022-10-23T01:13:01;11.70;;;3.78;;
68072;SDS011;54862;51.502;7.446;2022-10-23T01:15:32;12.25;;;3.78;;
68072;SDS011;54862;51.502;7.446;2022-10-23T01:18:09;12.18;;;3.42;;
68072;SDS011;54862;51.502;7.446;2022-10-23T01:28:54;17.35;;;5.05;;
68072;SDS011;54862;51.502;7.446;2022-10-23T01:31:29;8.88;;;3.10;;
68072;SDS011;54862;51.502;7.446;2022-10-23T01:33:59;10.32;;;3.47;;
68072;SDS011;54862;51.502;7.446;2022-10-23T01:36:28;13.80;;;3.50;;
68072;SDS011;54862;51.502;7.446;2022-10-23T01:38:57;10.82;;;3.72;;
68072;SDS011;54862;51.502;7.446;2022-10-23T01:41:28;9.32;;;3.58;;
68072;SDS011;54862;51.502;7.446;2022-10-23T01:43:55;6.88;;;3.17;;
68072;SDS011;54862;51.502;7.446;2022-10-23T01:46:24;8.48;;;3.30;;
68072;SDS011;54862;51.502;7.446;2022-10-23T01:48:51;9.75;;;3.45;;
68072;SDS011;54862;51.502;7.446;2022-10-23T01:51:18;9.65;;;3.40;;
68072;SDS011;54862;51.502;7.446;2022-10-23T01:53:45;8.05;;;3.53;;
68072;SDS011;54862;51.502;7.446;2022-10-23T01:56:14;9.10;;;3.40;;
68072;SDS011;54862;51.502;7.446;2022-10-23T01:58:43;6.88;;;3.25;;
68072;SDS011;54862;51.502;7.446;2022-10-23T02:01:10;9.02;;;3.38;;
68072;SDS011;54862;51.502;7.446;2022-10-23T02:03:36;8.75;;;3.40;;
68072;SDS011;54862;51.502;7.446;2022-10-23T02:06:03;7.10;;;3.10;;
68072;SDS011;54862;51.502;7.446;2022-10-23T02:08:30;7.88;;;3.00;;
68072;SDS011;54862;51.502;7.446;2022-10-23T02:13:41;8.10;;;3.20;;
68072;SDS011;54862;51.502;7.446;2022-10-23T02:18:40;8.43;;;3.30;;
68072;SDS011;54862;51.502;7.446;2022-10-23T02:21:10;8.60;;;3.22;;
68072;SDS011;54862;51.502;7.446;2022-10-23T02:23:51;7.13;;;3.40;;
68072;SDS011;54862;51.502;7.446;2022-10-23T02:26:26;9.15;;;3.25;;
68072;SDS011;54862;51.502;7.446;2022-10-23T02:29:00;11.50;;;3.80;;
68072;SDS011;54862;51.502;7.446;2022-10-23T02:31:29;10.50;;;3.45;;
68072;SDS011;54862;51.502;7.446;2022-10-23T02:33:55;10.82;;;3.53;;
68072;SDS011;54862;51.502;7.446;2022-10-23T02:36:21;8.88;;;3.20;;
68072;SDS011;54862;51.502;7.446;2022-10-23T02:38:48;10.73;;;3.50;;
68072;SDS011;54862;51.502;7.446;2022-10-23T02:43:52;9.40;;;3.60;;
68072;SDS011;54862;51.502;7.446;2022-10-23T02:49:12;7.93;;;3.50;;
68072;SDS011;54862;51.502;7.446;2022-10-23T02:51:52;6.95;;;2.78;;
68072;SDS011;54862;51.502;7.446;2022-10-23T02:54:29;6.90;;;3.17;;
68072;SDS011;54862;51.502;7.446;2022-10-23T02:57:02;6.63;;;3.10;;
68072;SDS011;54862;51.502;7.446;2022-10-23T02:59:35;8.13;;;3.05;;
68072;SDS011;54862;51.502;7.446;2022-10-23T03:02:04;10.32;;;3.10;;
68072;SDS011;54862;51.502;7.446;2022-10-23T03:04:31;8.43;;;3.50;;
68072;SDS011;54862;51.502;7.446;2022-10-23T03:06:57;8.77;;;3.10;;
68072;SDS011;54862;51.502;7.446;2022-10-23T03:09:24;9.57;;;3.33;;
68072;SDS011;54862;51.502;7.446;2022-10-23T03:11:51;8.73;;;3.53;;
68072;SDS011;54862;51.502;7.446;2022-10-23T03:14:17;7.47;;;3.00;;
68072;SDS011;54862;51.502;7.446;2022-10-23T03:16:43;7.85;;;2.90;;
68072;SDS011;54862;51.502;7.446;2022-10-23T03:19:10;10.18;;;2.95;;
68072;SDS011;54862;51.502;7.446;2022-10-23T03:21:36;6.50;;;3.10;;
68072;SDS011;54862;51.502;7.446;2022-10-23T03:24:02;10.35;;;3.08;;
68072;SDS011;54862;51.502;7.446;2022-10-23T03:26:28;8.75;;;2.97;;
68072;SDS011;54862;51.502;7.446;2022-10-23T03:28:54;7.30;;;2.95;;
68072;SDS011;54862;51.502;7.446;2022-10-23T03:31:20;8.45;;;3.25;;
68072;SDS011;54862;51.502;7.446;2022-10-23T03:33:46;12.32;;;3.63;;
68072;SDS011;54862;51.502;7.446;2022-10-23T03:36:12;11.73;;;2.88;;
68072;SDS011;54862;51.502;7.446;2022-10-23T03:38:38;12.18;;;3.45;;
68072;SDS011;54862;51.502;7.446;2022-10-23T03:41:04;7.85;;;2.90;;
68072;SDS011;54862;51.502;7.446;2022-10-23T03:43:30;6.47;;;2.92;;
68072;SDS011;54862;51.502;7.446;2022-10-23T03:45:56;9.68;;;3.30;;
68072;SDS011;54862;51.502;7.446;2022-10-23T03:48:22;6.55;;;2.63;;
68072;SDS011;54862;51.502;7.446;2022-10-23T03:50:49;6.65;;;3.13;;
68072;SDS011;54862;51.502;7.446;2022-10-23T03:53:15;8.40;;;3.20;;
68072;SDS011;54862;51.502;7.446;2022-10-23T03:55:42;10.05;;;3.15;;
68072;SDS011;54862;51.502;7.446;2022-10-23T03:58:08;7.78;;;2.90;;
68072;SDS011;54862;51.502;7.446;2022-10-23T04:00:34;7.00;;;2.80;;
68072;SDS011;54862;51.502;7.446;2022-10-23T04:03:00;11.38;;;2.90;;
68072;SDS011;54862;51.502;7.446;2022-10-23T04:05:26;10.18;;;3.00;;
68072;SDS011;54862;51.502;7.446;2022-10-23T04:07:52;9.27;;;3.00;;
68072;SDS011;54862;51.502;7.446;2022-10-23T04:10:18;9.10;;;3.00;;
68072;SDS011;54862;51.502;7.446;2022-10-23T04:12:44;9.82;;;2.80;;
68072;SDS011;54862;51.502;7.446;2022-10-23T04:15:10;5.63;;;2.50;;
68072;SDS011;54862;51.502;7.446;2022-10-23T04:17:36;11.40;;;3.05;;
68072;SDS011;54862;51.502;7.446;2022-10-23T04:20:02;7.82;;;2.85;;
68072;SDS011;54862;51.502;7.446;2022-10-23T04:22:28;8.60;;;2.53;;
68072;SDS011;54862;51.502;7.446;2022-10-23T04:24:54;7.28;;;2.58;;
68072;SDS011;54862;51.502;7.446;2022-10-23T04:27:20;6.70;;;2.85;;
68072;SDS011;54862;51.502;7.446;2022-10-23T04:29:46;6.40;;;3.22;;
68072;SDS011;54862;51.502;7.446;2022-10-23T04:32:13;7.47;;;2.72;;
68072;SDS011;54862;51.502;7.446;2022-10-23T04:34:39;7.93;;;2.70;;
68072;SDS011;54862;51.502;7.446;2022-10-23T04:37:05;7.25;;;2.60;;
68072;SDS011;54862;51.502;7.446;2022-10-23T04:39:31;8.50;;;2.95;;
68072;SDS011;54862;51.502;7.446;2022-10-23T04:41:57;6.43;;;2.80;;
68072;SDS011;54862;51.502;7.446;2022-10-23T04:44:23;5.38;;;2.40;;
68072;SDS011;54862;51.502;7.446;2022-10-23T04:46:49;8.38;;;2.63;;
68072;SDS011;54862;51.502;7.446;2022-10-23T04:49:15;6.28;;;2.53;;
68072;SDS011;54862;51.502;7.446;2022-10-23T04:51:41;5.78;;;2.65;;
68072;SDS011;54862;51.502;7.446;2022-10-23T04:54:06;6.45;;;2.70;;
68072;SDS011;54862;51.502;7.446;2022-10-23T04:56:33;5.00;;;2.70;;
68072;SDS011;54862;51.502;7.446;2022-10-23T04:59:00;7.22;;;2.83;;
68072;SDS011;54862;51.502;7.446;2022-10-23T05:01:26;9.05;;;2.60;;
68072;SDS011;54862;51.502;7.446;2022-10-23T05:03:52;10.93;;;2.88;;
68072;SDS011;54862;51.502;7.446;2022-10-23T05:06:18;7.13;;;2.72;;
68072;SDS011;54862;51.502;7.446;2022-10-23T05:08:44;8.57;;;3.03;;
68072;SDS011;54862;51.502;7.446;2022-10-23T05:11:10;9.77;;;2.78;;
68072;SDS011;54862;51.502;7.446;2022-10-23T05:13:36;6.38;;;2.92;;
68072;SDS011;54862;51.502;7.446;2022-10-23T05:16:02;8.55;;;2.92;;
68072;SDS011;54862;51.502;7.446;2022-10-23T05:18:30;11.80;;;3.20;;
68072;SDS011;54862;51.502;7.446;2022-10-23T05:20:58;7.35;;;2.83;;
68072;SDS011;54862;51.502;7.446;2022-10-23T05:23:26;7.38;;;2.95;;
68072;SDS011;54862;51.502;7.446;2022-10-23T05:25:52;8.02;;;3.20;;
68072;SDS011;54862;51.502;7.446;2022-10-23T05:28:18;7.88;;;2.55;;
68072;SDS011;54862;51.502;7.446;2022-10-23T05:30:44;7.93;;;3.03;;
68072;SDS011;54862;51.502;7.446;2022-10-23T05:33:11;6.18;;;2.65;;
68072;SDS011;54862;51.502;7.446;2022-10-23T05:35:37;7.70;;;3.00;;
68072;SDS011;54862;51.502;7.446;2022-10-23T05:38:04;8.25;;;3.22;;
68072;SDS011;54862;51.502;7.446;2022-10-23T05:40:31;7.22;;;2.70;;
68072;SDS011;54862;51.502;7.446;2022-10-23T05:42:57;8.70;;;2.90;;
68072;SDS011;54862;51.502;7.446;2022-10-23T05:45:23;6.05;;;2.88;;
68072;SDS011;54862;51.502;7.446;2022-10-23T05:47:49;7.55;;;3.00;;
68072;SDS011;54862;51.502;7.446;2022-10-23T05:50:15;5.60;;;2.72;;
68072;SDS011;54862;51.502;7.446;2022-10-23T05:52:44;9.80;;;2.70;;
68072;SDS011;54862;51.502;7.446;2022-10-23T05:55:10;6.60;;;2.78;;
68072;SDS011;54862;51.502;7.446;2022-10-23T05:57:36;6.35;;;2.85;;
68072;SDS011;54862;51.502;7.446;2022-10-23T06:00:02;7.45;;;3.15;;
68072;SDS011;54862;51.502;7.446;2022-10-23T06:02:28;7.65;;;2.90;;
68072;SDS011;54862;51.502;7.446;2022-10-23T06:04:54;10.73;;;3.10;;
68072;SDS011;54862;51.502;7.446;2022-10-23T06:07:24;6.15;;;2.83;;
68072;SDS011;54862;51.502;7.446;2022-10-23T06:09:50;7.40;;;2.95;;
68072;SDS011;54862;51.502;7.446;2022-10-23T06:12:17;11.35;;;3.35;;
68072;SDS011;54862;51.502;7.446;2022-10-23T06:14:43;9.07;;;3.25;;
68072;SDS011;54862;51.502;7.446;2022-10-23T06:17:09;7.68;;;2.65;;
68072;SDS011;54862;51.502;7.446;2022-10-23T06:19:35;7.05;;;2.90;;
68072;SDS011;54862;51.502;7.446;2022-10-23T06:22:01;8.52;;;2.75;;
68072;SDS011;54862;51.502;7.446;2022-10-23T06:24:27;8.25;;;2.75;;
68072;SDS011;54862;51.502;7.446;2022-10-23T06:26:53;8.02;;;3.20;;
68072;SDS011;54862;51.502;7.446;2022-10-23T06:29:19;8.07;;;3.05;;
68072;SDS011;54862;51.502;7.446;2022-10-23T06:31:45;7.10;;;2.83;;
68072;SDS011;54862;51.502;7.446;2022-10-23T06:34:11;7.25;;;2.60;;
68072;SDS011;54862;51.502;7.446;2022-10-23T06:36:37;6.63;;;2.95;;
68072;SDS011;54862;51.502;7.446;2022-10-23T06:39:03;9.30;;;3.00;;
68072;SDS011;54862;51.502;7.446;2022-10-23T06:41:29;6.40;;;2.80;;
68072;SDS011;54862;51.502;7.446;2022-10-23T06:43:55;5.97;;;2.70;;
68072;SDS011;54862;51.502;7.446;2022-10-23T06:46:22;8.32;;;2.75;;
68072;SDS011;54862;51.502;7.446;2022-10-23T06:48:48;7.60;;;3.08;;
68072;SDS011;54862;51.502;7.446;2022-10-23T06:51:15;8.73;;;2.88;;
68072;SDS011;54862;51.502;7.446;2022-10-23T06:53:42;6.10;;;2.63;;
68072;SDS011;54862;51.502;7.446;2022-10-23T06:56:09;8.07;;;2.88;;
68072;SDS011;54862;51.502;7.446;2022-10-23T06:58:36;7.22;;;3.17;;
68072;SDS011;54862;51.502;7.446;2022-10-23T07:01:03;12.40;;;3.05;;
68072;SDS011;54862;51.502;7.446;2022-10-23T07:03:30;8.57;;;2.97;;
68072;SDS011;54862;51.502;7.446;2022-10-23T07:05:58;6.07;;;2.75;;
68072;SDS011;54862;51.502;7.446;2022-10-23T07:08:24;7.53;;;2.80;;
68072;SDS011;54862;51.502;7.446;2022-10-23T07:10:50;10.95;;;2.95;;
68072;SDS011;54862;51.502;7.446;2022-10-23T07:13:16;8.63;;;2.85;;
68072;SDS011;54862;51.502;7.446;2022-10-23T07:15:42;7.10;;;2.85;;
68072;SDS011;54862;51.502;7.446;2022-10-23T07:18:08;6.82;;;2.53;;
68072;SDS011;54862;51.502;7.446;2022-10-23T07:20:38;7.68;;;2.83;;
68072;SDS011;54862;51.502;7.446;2022-10-23T07:23:05;6.18;;;2.72;;
68072;SDS011;54862;51.502;7.446;2022-10-23T07:25:31;8.40;;;2.65;;
68072;SDS011;54862;51.502;7.446;2022-10-23T07:27:57;8.32;;;2.90;;
68072;SDS011;54862;51.502;7.446;2022-10-23T07:30:23;9.18;;;2.88;;
68072;SDS011;54862;51.502;7.446;2022-10-23T07:32:49;7.65;;;2.90;;
68072;SDS011;54862;51.502;7.446;2022-10-23T07:35:16;7.53;;;2.28;;
68072;SDS011;54862;51.502;7.446;2022-10-23T07:37:42;6.30;;;2.65;;
68072;SDS011;54862;51.502;7.446;2022-10-23T07:40:08;6.82;;;2.75;;
68072;SDS011;54862;51.502;7.446;2022-10-23T07:42:34;6.50;;;2.40;;
68072;SDS011;54862;51.502;7.446;2022-10-23T07:45:00;6.72;;;2.60;;
68072;SDS011;54862;51.502;7.446;2022-10-23T07:47:28;4.93;;;2.35;;
68072;SDS011;54862;51.502;7.446;2022-10-23T07:49:54;6.10;;;2.72;;
68072;SDS011;54862;51.502;7.446;2022-10-23T07:52:20;4.32;;;2.28;;
68072;SDS011;54862;51.502;7.446;2022-10-23T07:54:49;7.85;;;2.80;;
68072;SDS011;54862;51.502;7.446;2022-10-23T07:57:15;7.40;;;2.67;;
68072;SDS011;54862;51.502;7.446;2022-10-23T07:59:41;7.90;;;2.78;;
68072;SDS011;54862;51.502;7.446;2022-10-23T08:02:11;7.35;;;2.88;;
68072;SDS011;54862;51.502;7.446;2022-10-23T08:04:38;10.57;;;3.17;;
68072;SDS011;54862;51.502;7.446;2022-10-23T08:07:04;7.00;;;2.70;;
68072;SDS011;54862;51.502;7.446;2022-10-23T08:09:30;7.80;;;2.65;;
68072;SDS011;54862;51.502;7.446;2022-10-23T08:11:58;7.70;;;2.67;;
68072;SDS011;54862;51.502;7.446;2022-10-23T08:14:24;7.53;;;3.00;;
68072;SDS011;54862;51.502;7.446;2022-10-23T08:16:50;7.00;;;2.50;;
68072;SDS011;54862;51.502;7.446;2022-10-23T08:19:16;10.27;;;2.92;;
68072;SDS011;54862;51.502;7.446;2022-10-23T08:21:42;7.85;;;2.95;;
68072;SDS011;54862;51.502;7.446;2022-10-23T08:24:08;9.82;;;4.10;;
68072;SDS011;54862;51.502;7.446;2022-10-23T08:26:38;13.05;;;3.92;;
68072;SDS011;54862;51.502;7.446;2022-10-23T08:29:04;7.78;;;3.22;;
68072;SDS011;54862;51.502;7.446;2022-10-23T08:31:30;7.53;;;3.20;;
68072;SDS011;54862;51.502;7.446;2022-10-23T08:33:56;12.55;;;3.78;;
68072;SDS011;54862;51.502;7.446;2022-10-23T08:36:23;8.68;;;3.53;;
68072;SDS011;54862;51.502;7.446;2022-10-23T08:38:50;11.82;;;3.58;;
68072;SDS011;54862;51.502;7.446;2022-10-23T08:41:25;10.50;;;3.97;;
68072;SDS011;54862;51.502;7.446;2022-10-23T08:43:53;6.30;;;2.97;;
68072;SDS011;54862;51.502;7.446;2022-10-23T08:46:22;6.68;;;2.70;;
68072;SDS011;54862;51.502;7.446;2022-10-23T08:48:50;7.45;;;2.63;;
68072;SDS011;54862;51.502;7.446;2022-10-23T08:53:58;7.10;;;2.47;;
68072;SDS011;54862;51.502;7.446;2022-10-23T08:56:32;7.70;;;2.60;;
68072;SDS011;54862;51.502;7.446;2022-10-23T08:59:02;6.53;;;2.33;;
68072;SDS011;54862;51.502;7.446;2022-10-23T09:01:31;6.10;;;2.40;;
68072;SDS011;54862;51.502;7.446;2022-10-23T09:03:59;6.45;;;2.70;;
68072;SDS011;54862;51.502;7.446;2022-10-23T09:06:33;4.65;;;2.30;;
68072;SDS011;54862;51.502;7.446;2022-10-23T09:12:04;4.93;;;1.90;;
68072;SDS011;54862;51.502;7.446;2022-10-23T09:14:41;7.60;;;2.15;;
68072;SDS011;54862;51.502;7.446;2022-10-23T09:17:25;5.10;;;2.30;;
68072;SDS011;54862;51.502;7.446;2022-10-23T09:19:59;7.07;;;2.08;;
68072;SDS011;54862;51.502;7.446;2022-10-23T09:22:26;5.80;;;1.95;;
68072;SDS011;54862;51.502;7.446;2022-10-23T09:24:53;3.85;;;2.00;;
68072;SDS011;54862;51.502;7.446;2022-10-23T09:27:19;9.60;;;2.28;;
68072;SDS011;54862;51.502;7.446;2022-10-23T09:29:46;4.88;;;1.92;;
68072;SDS011;54862;51.502;7.446;2022-10-23T09:32:12;5.50;;;2.35;;
68072;SDS011;54862;51.502;7.446;2022-10-23T09:34:38;3.97;;;2.20;;
68072;SDS011;54862;51.502;7.446;2022-10-23T09:37:19;4.75;;;1.95;;
68072;SDS011;54862;51.502;7.446;2022-10-23T09:39:45;4.72;;;2.08;;
68072;SDS011;54862;51.502;7.446;2022-10-23T09:42:22;7.72;;;2.20;;
68072;SDS011;54862;51.502;7.446;2022-10-23T09:44:49;8.07;;;2.40;;
68072;SDS011;54862;51.502;7.446;2022-10-23T09:47:17;10.90;;;2.28;;
68072;SDS011;54862;51.502;7.446;2022-10-23T09:49:48;7.00;;;2.17;;
68072;SDS011;54862;51.502;7.446;2022-10-23T09:54:48;5.63;;;1.90;;
68072;SDS011;54862;51.502;7.446;2022-10-23T09:59:55;5.97;;;2.10;;
68072;SDS011;54862;51.502;7.446;2022-10-23T10:02:26;6.20;;;2.10;;
68072;SDS011;54862;51.502;7.446;2022-10-23T10:04:52;5.18;;;1.70;;
68072;SDS011;54862;51.502;7.446;2022-10-23T10:07:19;4.50;;;2.70;;
68072;SDS011;54862;51.502;7.446;2022-10-23T10:09:46;3.13;;;1.92;;
68072;SDS011;54862;51.502;7.446;2022-10-23T10:12:18;6.47;;;2.00;;
68072;SDS011;54862;51.502;7.446;2022-10-23T10:17:31;8.45;;;1.98;;
68072;SDS011;54862;51.502;7.446;2022-10-23T10:22:52;5.50;;;1.90;;
68072;SDS011;54862;51.502;7.446;2022-10-23T10:34:05;4.20;;;2.00;;
68072;SDS011;54862;51.502;7.446;2022-10-23T10:38:58;6.47;;;2.30;;
68072;SDS011;54862;51.502;7.446;2022-10-23T10:41:30;9.57;;;2.80;;
68072;SDS011;54862;51.502;7.446;2022-10-23T10:46:37;9.63;;;3.15;;
68072;SDS011;54862;51.502;7.446;2022-10-23T10:49:18;6.32;;;2.78;;
68072;SDS011;54862;51.502;7.446;2022-10-23T10:52:08;6.47;;;2.78;;
68072;SDS011;54862;51.502;7.446;2022-10-23T10:57:03;4.45;;;2.10;;
68072;SDS011;54862;51.502;7.446;2022-10-23T10:59:37;5.03;;;2.00;;
68072;SDS011;54862;51.502;7.446;2022-10-23T11:04:39;7.75;;;2.58;;
68072;SDS011;54862;51.502;7.446;2022-10-23T11:07:10;5.47;;;2.53;;
68072;SDS011;54862;51.502;7.446;2022-10-23T11:09:37;7.13;;;2.40;;
68072;SDS011;54862;51.502;7.446;2022-10-23T11:12:03;7.28;;;2.35;;
68072;SDS011;54862;51.502;7.446;2022-10-23T11:14:30;6.05;;;2.33;;
68072;SDS011;54862;51.502;7.446;2022-10-23T11:17:06;6.07;;;2.30;;
68072;SDS011;54862;51.502;7.446;2022-10-23T11:19:39;6.05;;;2.25;;
68072;SDS011;54862;51.502;7.446;2022-10-23T11:22:25;4.35;;;2.17;;
68072;SDS011;54862;51.502;7.446;2022-10-23T11:25:05;7.05;;;2.35;;
68072;SDS011;54862;51.502;7.446;2022-10-23T11:27:54;3.65;;;2.03;;
68072;SDS011;54862;51.502;7.446;2022-10-23T11:35:34;3.80;;;2.10;;
68072;SDS011;54862;51.502;7.446;2022-10-23T11:38:12;6.10;;;2.15;;
68072;SDS011;54862;51.502;7.446;2022-10-23T11:40:48;5.55;;;2.30;;
68072;SDS011;54862;51.502;7.446;2022-10-23T11:43:24;6.05;;;2.25;;
68072;SDS011;54862;51.502;7.446;2022-10-23T11:45:51;5.20;;;2.50;;
68072;SDS011;54862;51.502;7.446;2022-10-23T11:48:39;5.30;;;2.17;;
68072;SDS011;54862;51.502;7.446;2022-10-23T11:51:24;8.88;;;2.50;;
68072;SDS011;54862;51.502;7.446;2022-10-23T11:53:50;6.53;;;2.17;;
68072;SDS011;54862;51.502;7.446;2022-10-23T11:58:49;6.03;;;2.85;;
68072;SDS011;54862;51.502;7.446;2022-10-23T12:01:22;8.63;;;2.90;;
68072;SDS011;54862;51.502;7.446;2022-10-23T12:03:51;9.05;;;3.47;;
68072;SDS011;54862;51.502;7.446;2022-10-23T12:06:23;5.85;;;2.72;;
68072;SDS011;54862;51.502;7.446;2022-10-23T12:08:51;9.15;;;3.17;;
68072;SDS011;54862;51.502;7.446;2022-10-23T12:11:23;5.82;;;3.08;;
68072;SDS011;54862;51.502;7.446;2022-10-23T12:13:49;6.85;;;3.10;;
68072;SDS011;54862;51.502;7.446;2022-10-23T12:16:15;7.78;;;3.80;;
68072;SDS011;54862;51.502;7.446;2022-10-23T12:18:45;5.93;;;3.20;;
68072;SDS011;54862;51.502;7.446;2022-10-23T12:21:14;10.18;;;5.20;;
68072;SDS011;54862;51.502;7.446;2022-10-23T12:29:09;16.65;;;9.70;;
68072;SDS011;54862;51.502;7.446;2022-10-23T12:31:54;17.83;;;8.75;;
68072;SDS011;54862;51.502;7.446;2022-10-23T12:39:30;13.02;;;3.60;;
68072;SDS011;54862;51.502;7.446;2022-10-23T12:41:57;10.57;;;4.85;;
68072;SDS011;54862;51.502;7.446;2022-10-23T12:44:24;9.25;;;3.28;;
68072;SDS011;54862;51.502;7.446;2022-10-23T12:46:53;7.85;;;3.70;;
68072;SDS011;54862;51.502;7.446;2022-10-23T12:49:20;9.50;;;3.00;;
68072;SDS011;54862;51.502;7.446;2022-10-23T12:51:57;6.30;;;2.65;;
68072;SDS011;54862;51.502;7.446;2022-10-23T12:54:24;7.72;;;2.55;;
68072;SDS011;54862;51.502;7.446;2022-10-23T12:56:50;5.55;;;2.17;;
68072;SDS011;54862;51.502;7.446;2022-10-23T12:59:17;6.53;;;2.30;;
68072;SDS011;54862;51.502;7.446;2022-10-23T13:01:45;9.10;;;2.00;;
68072;SDS011;54862;51.502;7.446;2022-10-23T13:06:46;6.53;;;2.33;;
68072;SDS011;54862;51.502;7.446;2022-10-23T13:09:17;5.60;;;2.08;;
68072;SDS011;54862;51.502;7.446;2022-10-23T13:11:44;11.48;;;2.20;;
68072;SDS011;54862;51.502;7.446;2022-10-23T13:14:11;5.22;;;2.10;;
68072;SDS011;54862;51.502;7.446;2022-10-23T13:16:37;8.77;;;2.67;;
68072;SDS011;54862;51.502;7.446;2022-10-23T13:19:03;8.55;;;2.53;;
68072;SDS011;54862;51.502;7.446;2022-10-23T13:21:29;6.80;;;2.35;;
68072;SDS011;54862;51.502;7.446;2022-10-23T13:23:56;5.47;;;2.30;;
68072;SDS011;54862;51.502;7.446;2022-10-23T13:26:30;6.05;;;2.40;;
68072;SDS011;54862;51.502;7.446;2022-10-23T13:28:57;6.28;;;2.33;;
68072;SDS011;54862;51.502;7.446;2022-10-23T13:31:24;6.97;;;2.40;;
68072;SDS011;54862;51.502;7.446;2022-10-23T13:34:14;6.55;;;2.78;;
68072;SDS011;54862;51.502;7.446;2022-10-23T13:36:37;7.43;;;2.53;;
68072;SDS011;54862;51.502;7.446;2022-10-23T13:39:13;5.28;;;2.38;;
68072;SDS011;54862;51.502;7.446;2022-10-23T13:41:43;5.90;;;2.67;;
68072;SDS011;54862;51.502;7.446;2022-10-23T13:44:11;6.78;;;2.40;;
68072;SDS011;54862;51.502;7.446;2022-10-23T13:46:37;8.10;;;2.70;;
68072;SDS011;54862;51.502;7.446;2022-10-23T13:49:03;6.90;;;2.55;;
68072;SDS011;54862;51.502;7.446;2022-10-23T13:51:29;5.80;;;2.10;;
68072;SDS011;54862;51.502;7.446;2022-10-23T13:53:57;10.90;;;2.60;;
68072;SDS011;54862;51.502;7.446;2022-10-23T13:56:24;7.68;;;2.50;;
68072;SDS011;54862;51.502;7.446;2022-10-23T13:58:50;7.35;;;2.70;;
68072;SDS011;54862;51.502;7.446;2022-10-23T14:01:21;5.57;;;2.30;;
68072;SDS011;54862;51.502;7.446;2022-10-23T14:03:50;9.75;;;2.70;;
68072;SDS011;54862;51.502;7.446;2022-10-23T14:06:16;9.00;;;2.63;;
68072;SDS011;54862;51.502;7.446;2022-10-23T14:08:42;7.70;;;2.10;;
68072;SDS011;54862;51.502;7.446;2022-10-23T14:11:09;6.55;;;2.10;;
68072;SDS011;54862;51.502;7.446;2022-10-23T14:13:35;5.03;;;2.30;;
68072;SDS011;54862;51.502;7.446;2022-10-23T14:16:01;8.13;;;2.38;;
68072;SDS011;54862;51.502;7.446;2022-10-23T14:18:27;5.63;;;2.00;;
68072;SDS011;54862;51.502;7.446;2022-10-23T14:20:53;5.13;;;2.28;;
68072;SDS011;54862;51.502;7.446;2022-10-23T14:23:19;7.40;;;2.28;;
68072;SDS011;54862;51.502;7.446;2022-10-23T14:25:45;8.65;;;2.28;;
68072;SDS011;54862;51.502;7.446;2022-10-23T14:28:11;4.90;;;2.28;;
68072;SDS011;54862;51.502;7.446;2022-10-23T14:30:37;5.55;;;2.10;;
68072;SDS011;54862;51.502;7.446;2022-10-23T14:33:03;6.28;;;2.10;;
68072;SDS011;54862;51.502;7.446;2022-10-23T14:35:29;6.72;;;2.28;;
68072;SDS011;54862;51.502;7.446;2022-10-23T14:37:55;6.72;;;2.40;;
68072;SDS011;54862;51.502;7.446;2022-10-23T14:40:22;7.38;;;2.42;;
68072;SDS011;54862;51.502;7.446;2022-10-23T14:42:48;8.80;;;2.20;;
68072;SDS011;54862;51.502;7.446;2022-10-23T14:45:14;5.68;;;2.50;;
68072;SDS011;54862;51.502;7.446;2022-10-23T14:47:40;7.30;;;2.30;;
68072;SDS011;54862;51.502;7.446;2022-10-23T14:50:06;5.72;;;2.13;;
68072;SDS011;54862;51.502;7.446;2022-10-23T14:52:33;6.53;;;2.47;;
68072;SDS011;54862;51.502;7.446;2022-10-23T14:54:58;7.18;;;2.13;;
68072;SDS011;54862;51.502;7.446;2022-10-23T14:57:25;7.75;;;2.45;;
68072;SDS011;54862;51.502;7.446;2022-10-23T14:59:51;5.18;;;2.15;;
68072;SDS011;54862;51.502;7.446;2022-10-23T15:02:17;5.95;;;2.45;;
68072;SDS011;54862;51.502;7.446;2022-10-23T15:04:43;4.00;;;2.00;;
68072;SDS011;54862;51.502;7.446;2022-10-23T15:07:09;4.18;;;2.17;;
68072;SDS011;54862;51.502;7.446;2022-10-23T15:09:35;6.75;;;2.30;;
68072;SDS011;54862;51.502;7.446;2022-10-23T15:12:03;5.15;;;2.55;;
68072;SDS011;54862;51.502;7.446;2022-10-23T15:14:30;8.30;;;2.30;;
68072;SDS011;54862;51.502;7.446;2022-10-23T15:16:56;6.60;;;2.72;;
68072;SDS011;54862;51.502;7.446;2022-10-23T15:19:22;6.93;;;2.40;;
68072;SDS011;54862;51.502;7.446;2022-10-23T15:21:48;6.50;;;2.20;;
68072;SDS011;54862;51.502;7.446;2022-10-23T15:24:15;6.00;;;2.63;;
68072;SDS011;54862;51.502;7.446;2022-10-23T15:26:41;9.20;;;2.50;;
68072;SDS011;54862;51.502;7.446;2022-10-23T15:29:08;6.47;;;2.67;;
68072;SDS011;54862;51.502;7.446;2022-10-23T15:34:08;15.75;;;3.40;;
68072;SDS011;54862;51.502;7.446;2022-10-23T15:36:34;6.20;;;2.50;;
68072;SDS011;54862;51.502;7.446;2022-10-23T15:39:00;9.82;;;2.70;;
68072;SDS011;54862;51.502;7.446;2022-10-23T15:41:27;7.03;;;2.53;;
68072;SDS011;54862;51.502;7.446;2022-10-23T15:43:54;7.18;;;2.60;;
68072;SDS011;54862;51.502;7.446;2022-10-23T15:46:20;7.30;;;2.90;;
68072;SDS011;54862;51.502;7.446;2022-10-23T15:48:46;9.52;;;2.83;;
68072;SDS011;54862;51.502;7.446;2022-10-23T15:51:12;9.35;;;3.97;;
68072;SDS011;54862;51.502;7.446;2022-10-23T15:53:38;10.18;;;3.05;;
68072;SDS011;54862;51.502;7.446;2022-10-23T15:56:04;7.20;;;3.00;;
68072;SDS011;54862;51.502;7.446;2022-10-23T15:58:30;6.78;;;3.00;;
68072;SDS011;54862;51.502;7.446;2022-10-23T16:00:56;8.23;;;3.40;;
68072;SDS011;54862;51.502;7.446;2022-10-23T16:03:23;12.15;;;3.85;;
68072;SDS011;54862;51.502;7.446;2022-10-23T16:05:49;18.83;;;3.70;;
68072;SDS011;54862;51.502;7.446;2022-10-23T16:08:15;8.07;;;3.25;;
68072;SDS011;54862;51.502;7.446;2022-10-23T16:10:41;10.52;;;3.25;;